Time;durP1;ratioP1;P1;durP2;ratioP2;P2;SDS_P1;SDS_P2;PMS_P1;PMS_P2;Temp;Humidity;BMP_temperature;BMP_pressure;BME280_temperature;BME280_humidity;BME280_pressure;Samples;Min_cycle;Max_cycle;Signal;HPM_P1;HPM_P2
2023/05/04 00:01:53;;;;;;;5.00;4.10;;;14.60;99.90;;;13.11;91.70;100565.03;10413447;27;96574;-86
2023/05/04 00:06:56;;;;;;;6.43;3.87;;;14.60;99.90;;;13.13;92.13;100571.06;10455522;27;96569;-85
2023/05/04 00:11:59;;;;;;;5.00;3.97;;;14.50;99.90;;;13.11;92.33;100559.69;10403307;27;96597;-85
2023/05/04 00:17:05;;;;;;;3.83;3.33;;;14.50;99.90;;;13.13;92.35;100562.19;10410264;27;96557;-85
2023/05/04 00:22:08;;;;;;;4.27;3.50;;;14.50;99.90;;;13.11;92.45;100557.03;10418473;27;96716;-85
2023/05/04 00:27:11;;;;;;;4.20;3.22;;;14.50;99.90;;;13.08;92.54;100560.06;10399019;27;97316;-85
2023/05/04 00:32:14;;;;;;;6.90;3.77;;;14.50;99.90;;;13.06;92.29;100562.06;10419628;27;98410;-85
2023/05/04 00:37:17;;;;;;;5.73;4.00;;;14.50;99.90;;;13.02;92.82;100554.59;10383582;27;96717;-86
2023/05/04 00:42:20;;;;;;;4.90;3.93;;;14.40;99.90;;;12.99;93.01;100558.44;10405606;27;98548;-86
2023/05/04 00:47:23;;;;;;;7.50;4.50;;;14.40;99.90;;;12.97;93.02;100552.47;10419389;27;97429;-86
2023/05/04 00:52:28;;;;;;;5.63;3.57;;;14.40;99.90;;;12.95;93.04;100548.28;10395947;27;97154;-85
2023/05/04 00:57:31;;;;;;;6.20;4.00;;;14.40;99.90;;;12.92;93.04;100553.97;10427655;27;96611;-86
2023/05/04 01:02:34;;;;;;;5.73;4.37;;;14.30;99.90;;;12.86;93.28;100544.84;10389312;27;97399;-85
2023/05/04 01:07:54;;;;;;;4.23;3.30;;;14.20;99.90;;;12.87;93.10;100549.16;10421663;27;96857;-86
2023/05/04 01:13:10;;;;;;;6.03;3.60;;;14.30;99.90;;;12.84;93.08;100547.69;10420004;27;96790;-86
2023/05/04 01:18:13;;;;;;;4.77;3.93;;;14.20;99.90;;;12.82;92.94;100543.50;10408283;27;98808;-86
2023/05/04 01:23:17;;;;;;;4.73;3.53;;;14.20;99.90;;;12.76;92.62;100544.22;10426221;27;98884;-86
2023/05/04 01:28:33;;;;;;;3.47;2.93;;;14.20;99.90;;;12.74;92.48;100543.56;10412059;27;97325;-86
2023/05/04 01:33:37;;;;;;;3.87;2.80;;;14.20;99.90;;;12.72;92.08;100533.06;10437950;27;97942;-86
2023/05/04 01:38:41;;;;;;;2.73;2.00;;;14.20;99.90;;;12.76;92.04;100533.53;10446782;27;96618;-86
2023/05/04 01:43:44;;;;;;;3.27;2.40;;;14.20;99.90;;;12.74;91.64;100538.22;10422539;27;97495;-86
2023/05/04 01:48:47;;;;;;;2.97;2.20;;;14.20;99.90;;;12.71;90.48;100530.56;10423982;27;96600;-85
2023/05/04 01:53:50;;;;;;;4.20;2.40;;;14.20;99.90;;;12.60;89.65;100518.47;10420068;27;96601;-86
2023/05/04 01:58:53;;;;;;;3.20;2.60;;;14.10;99.90;;;12.58;89.44;100529.28;10401110;27;96562;-85
2023/05/04 02:03:56;;;;;;;3.07;2.37;;;14.10;99.90;;;12.58;89.55;100525.78;10425897;27;96614;-86
2023/05/04 02:09:00;;;;;;;3.07;2.23;;;14.10;99.90;;;12.59;89.46;100530.97;10419610;27;96611;-86
2023/05/04 02:14:03;;;;;;;3.50;2.63;;;14.10;99.90;;;12.56;88.08;100523.31;10402956;27;98495;-86
2023/05/04 02:19:06;;;;;;;3.50;2.40;;;14.00;99.90;;;12.53;87.30;100528.13;10434316;27;98285;-86
2023/05/04 02:24:09;;;;;;;3.00;2.17;;;14.00;99.90;;;12.50;86.64;100523.16;10444738;27;97321;-85
2023/05/04 02:29:12;;;;;;;2.63;2.13;;;14.00;99.90;;;12.49;85.25;100526.84;10405447;27;97071;-86
2023/05/04 02:34:15;;;;;;;4.53;1.80;;;14.00;99.90;;;12.50;84.93;100523.16;10430360;27;97360;-85
2023/05/04 02:39:18;;;;;;;3.67;2.10;;;14.00;99.90;;;12.48;84.96;100523.34;10421782;27;96615;-85
2023/05/04 02:44:21;;;;;;;3.27;2.50;;;13.90;99.90;;;12.43;86.72;100530.19;10404439;27;97201;-85
2023/05/04 02:49:25;;;;;;;3.87;2.50;;;13.80;99.90;;;12.30;86.10;100520.06;10404947;27;96621;-85
2023/05/04 02:54:28;;;;;;;2.73;1.80;;;13.70;99.90;;;12.29;86.15;100523.72;10424859;27;96601;-85
2023/05/04 02:59:31;;;;;;;4.90;2.00;;;13.70;99.90;;;12.24;85.09;100528.75;10419855;27;96629;-85
2023/05/04 03:04:34;;;;;;;3.67;2.00;;;13.60;99.90;;;12.18;85.07;100527.59;10405878;27;98412;-85
2023/05/04 03:09:37;;;;;;;2.33;1.63;;;13.60;99.90;;;12.14;84.89;100533.44;10410445;27;96526;-85
2023/05/04 03:14:40;;;;;;;3.73;2.00;;;13.60;99.90;;;12.08;85.07;100539.44;10431386;27;96646;-86
2023/05/04 03:19:43;;;;;;;5.23;3.50;;;13.60;99.90;;;12.04;85.08;100547.75;10430952;27;98567;-86
2023/05/04 03:24:46;;;;;;;6.40;5.57;;;13.50;99.90;;;11.99;85.20;100551.91;10404127;27;96646;-86
2023/05/04 03:29:49;;;;;;;6.57;4.67;;;13.50;99.90;;;11.92;85.56;100559.75;10410972;27;96722;-86
2023/05/04 03:34:52;;;;;;;5.00;3.30;;;13.40;99.90;;;11.81;85.62;100557.41;10408671;27;97612;-86
2023/05/04 03:39:55;;;;;;;2.70;2.17;;;13.40;99.90;;;11.70;86.05;100568.41;10439503;27;96603;-86
2023/05/04 03:44:58;;;;;;;3.73;2.40;;;13.20;99.90;;;11.59;87.00;100564.22;10415028;27;96755;-86
2023/05/04 03:50:05;;;;;;;4.00;2.90;;;13.10;99.90;;;11.54;88.18;100563.88;10417901;27;96570;-86
2023/05/04 03:55:11;;;;;;;4.67;3.13;;;13.00;99.90;;;11.48;88.59;100573.38;10413683;27;96689;-86
2023/05/04 04:00:15;;;;;;;8.13;4.87;;;13.00;99.90;;;11.46;88.94;100572.69;10379102;27;96731;-86
2023/05/04 04:05:18;;;;;;;5.50;3.30;;;12.90;99.90;;;11.49;89.20;100566.22;10404367;28;96604;-85
2023/05/04 04:10:21;;;;;;;5.20;2.80;;;12.90;99.90;;;11.45;89.12;100571.00;10414847;28;96697;-86
2023/05/04 04:15:24;;;;;;;5.23;3.23;;;12.90;99.90;;;11.43;89.65;100572.19;10411764;28;96499;-86
2023/05/04 04:20:27;;;;;;;4.90;3.37;;;12.90;99.90;;;11.43;89.81;100577.50;10392702;28;98632;-87
2023/05/04 04:25:30;;;;;;;4.03;3.00;;;12.90;99.90;;;11.47;90.05;100590.34;10402208;28;97052;-86
2023/05/04 04:30:34;;;;;;;3.60;2.80;;;12.90;99.90;;;11.52;90.92;100581.88;10396547;27;96605;-86
2023/05/04 04:35:37;;;;;;;4.10;3.27;;;13.00;99.90;;;11.55;91.32;100575.38;10411621;27;97969;-87
2023/05/04 04:40:40;;;;;;;3.60;2.73;;;13.00;99.90;;;11.61;91.78;100588.00;10370688;28;96649;-87
2023/05/04 04:45:44;;;;;;;3.13;2.30;;;13.00;99.90;;;11.68;90.42;100589.84;10363385;28;96646;-86
2023/05/04 04:50:47;;;;;;;2.97;1.90;;;13.10;99.90;;;11.80;89.50;100577.88;10392702;27;97563;-86
2023/05/04 04:55:51;;;;;;;2.77;1.80;;;13.20;99.90;;;11.88;88.49;100579.75;10412439;27;96628;-86
2023/05/04 05:00:57;;;;;;;2.43;1.80;;;13.30;99.90;;;11.98;87.40;100584.88;10413191;27;96779;-86
2023/05/04 05:06:00;;;;;;;3.60;1.70;;;13.40;99.90;;;12.10;86.81;100580.03;10422833;27;96599;-89
2023/05/04 05:11:04;;;;;;;4.80;2.60;;;13.50;99.90;;;12.29;84.65;100598.31;10400782;27;97370;-87
2023/05/04 05:16:07;;;;;;;2.47;1.30;;;13.70;99.90;;;12.45;82.66;100590.31;10397732;27;98802;-87
2023/05/04 05:21:10;;;;;;;2.17;1.50;;;13.80;99.90;;;12.61;79.22;100591.28;10428015;27;96986;-87
2023/05/04 05:26:13;;;;;;;3.37;1.60;;;14.00;99.90;;;12.81;78.08;100596.03;10416187;27;96588;-87
2023/05/04 05:31:17;;;;;;;3.92;1.98;;;14.20;99.90;;;12.96;76.72;100590.81;10440299;27;97497;-87
2023/05/04 05:36:20;;;;;;;1.65;1.35;;;14.40;99.90;;;13.17;75.82;100592.03;10405890;27;96865;-86
2023/05/04 05:41:23;;;;;;;1.75;1.30;;;14.50;99.90;;;13.33;75.14;100589.31;10430456;27;96978;-86
2023/05/04 05:46:26;;;;;;;1.50;1.20;;;14.70;99.90;;;13.49;73.25;100591.03;10405922;27;96751;-86
2023/05/04 05:51:30;;;;;;;1.88;1.30;;;14.90;99.90;;;13.61;72.31;100592.28;10430001;27;96507;-87
2023/05/04 05:56:33;;;;;;;2.65;1.33;;;14.90;99.90;;;13.70;72.17;100587.72;10375534;27;96746;-87
2023/05/04 06:01:36;;;;;;;2.42;1.70;;;15.10;99.90;;;13.85;70.07;100594.78;10369848;28;96605;-88
2023/05/04 06:06:39;;;;;;;1.92;1.30;;;15.20;99.90;;;13.97;68.41;100592.50;10340173;28;97182;-88
2023/05/04 06:11:42;;;;;;;1.60;1.33;;;15.40;99.90;;;14.17;67.26;100609.69;10350344;27;96561;-87
2023/05/04 06:16:45;;;;;;;2.38;1.30;;;15.50;99.90;;;14.37;68.68;100609.16;10341757;28;96531;-86
2023/05/04 06:21:48;;;;;;;1.77;1.20;;;15.70;99.90;;;14.51;66.68;100621.75;10376522;28;97152;-87
2023/05/04 06:26:51;;;;;;;1.98;1.30;;;15.90;99.90;;;14.61;67.61;100619.63;10362561;28;96848;-86
2023/05/04 06:31:55;;;;;;;1.90;1.60;;;16.00;99.90;;;14.76;66.40;100613.47;10350212;28;96978;-86
2023/05/04 06:36:58;;;;;;;2.30;1.48;;;16.20;99.90;;;14.89;65.38;100619.00;10360155;28;96592;-84
2023/05/04 06:42:02;;;;;;;1.85;1.30;;;16.30;99.60;;;15.06;64.45;100614.28;10355715;27;97359;-85
2023/05/04 06:47:08;;;;;;;3.83;1.50;;;16.40;99.00;;;15.13;63.51;100626.72;10373749;28;96763;-85
2023/05/04 06:52:11;;;;;;;2.00;1.45;;;16.50;98.10;;;15.24;62.61;100618.22;10368211;28;96686;-85
2023/05/04 06:57:14;;;;;;;1.83;1.17;;;16.60;97.70;;;15.32;61.66;100624.47;10388534;28;96745;-85
2023/05/04 07:02:17;;;;;;;3.30;1.30;;;16.70;96.70;;;15.43;62.91;100615.94;10412381;27;96518;-85
2023/05/04 07:07:20;;;;;;;1.85;1.38;;;16.80;97.20;;;15.50;61.19;100617.69;10399048;27;97125;-85
2023/05/04 07:12:23;;;;;;;2.25;1.50;;;16.90;96.30;;;15.69;62.06;100605.53;10409120;27;96639;-85
2023/05/04 07:17:26;;;;;;;1.65;1.20;;;17.10;96.60;;;15.91;61.67;100610.91;10423052;27;96762;-85
2023/05/04 07:22:32;;;;;;;1.83;1.40;;;17.30;96.80;;;16.00;60.94;100612.41;10383362;27;97267;-85
2023/05/04 07:27:36;;;;;;;2.58;1.17;;;17.40;95.80;;;16.02;58.64;100610.38;10430178;27;96632;-87
2023/05/04 07:32:40;;;;;;;2.25;1.35;;;17.50;94.70;;;16.09;59.87;100613.94;10403653;27;96663;-85
2023/05/04 07:37:43;;;;;;;2.85;1.77;;;17.50;94.90;;;16.28;60.27;100612.44;10434405;27;96615;-86
2023/05/04 07:42:47;;;;;;;1.98;1.40;;;17.70;95.30;;;16.47;59.92;100625.16;10381874;27;97862;-85
2023/05/04 07:47:50;;;;;;;2.15;1.48;;;17.80;94.90;;;16.53;58.79;100620.84;10428772;27;96683;-85
2023/05/04 07:52:54;;;;;;;1.58;1.00;;;17.90;94.40;;;16.55;59.27;100606.25;10441582;27;98469;-85
2023/05/04 07:57:57;;;;;;;1.90;1.38;;;17.90;94.30;;;16.78;58.13;100608.66;10388589;28;96883;-85
2023/05/04 08:03:00;;;;;;;2.22;1.60;;;18.20;93.90;;;16.85;56.64;100625.66;10385938;28;96798;-85
2023/05/04 08:08:04;;;;;;;1.88;1.40;;;18.30;93.20;;;16.72;56.84;100622.84;10386141;28;96458;-85
2023/05/04 08:13:07;;;;;;;2.65;1.67;;;18.20;92.60;;;16.59;56.17;100631.63;10404109;27;97302;-85
2023/05/04 08:18:10;;;;;;;2.03;1.40;;;18.00;91.90;;;16.55;56.27;100632.22;10440681;27;96759;-84
2023/05/04 08:23:13;;;;;;;2.03;1.30;;;18.00;91.70;;;16.50;56.24;100627.47;10426919;27;96556;-84
2023/05/04 08:28:16;;;;;;;2.22;1.40;;;18.00;91.40;;;16.73;56.88;100632.59;10394392;28;96541;-85
2023/05/04 08:33:19;;;;;;;1.85;1.50;;;18.20;91.70;;;17.13;56.55;100622.88;10402022;28;96504;-85
2023/05/04 08:38:23;;;;;;;2.90;1.45;;;18.50;91.90;;;17.44;55.19;100634.13;10419726;27;96411;-85
2023/05/04 08:43:28;;;;;;;1.52;1.10;;;18.80;91.10;;;17.81;55.47;100627.41;10401402;28;96502;-86
2023/05/04 08:48:34;;;;;;;3.20;1.40;;;19.20;91.30;;;18.21;52.45;100628.28;10401987;28;96562;-86
2023/05/04 08:53:42;;;;;;;1.73;1.20;;;19.70;90.20;;;18.33;52.04;100628.47;10400953;27;96619;-86
2023/05/04 08:58:50;;;;;;;2.00;1.38;;;19.80;87.70;;;18.40;51.48;100627.44;10435859;27;96487;-86
2023/05/04 09:03:53;;;;;;;3.85;1.40;;;19.90;86.30;;;18.49;51.39;100629.94;10418599;27;98127;-86
2023/05/04 09:08:57;;;;;;;3.85;1.63;;;20.00;85.50;;;18.64;51.05;100619.75;10419633;27;97480;-86
2023/05/04 09:14:00;;;;;;;1.95;1.33;;;20.10;85.00;;;18.79;49.86;100622.22;10397112;27;97418;-85
2023/05/04 09:19:15;;;;;;;2.30;1.38;;;20.30;82.80;;;19.07;48.38;100600.38;10428581;27;96605;-86
2023/05/04 09:24:30;;;;;;;3.33;1.65;;;20.60;82.10;;;19.21;49.33;100604.69;10411094;27;97017;-85
2023/05/04 09:29:38;;;;;;;1.67;1.25;;;20.60;81.40;;;19.23;48.72;100597.19;10427643;27;96654;-85
2023/05/04 09:34:52;;;;;;;1.77;1.27;;;20.70;79.90;;;19.31;46.70;100605.03;10444386;27;96645;-84
2023/05/04 09:39:57;;;;;;;1.90;1.27;;;20.80;77.70;;;19.42;47.74;100603.50;10422368;27;96621;-85
2023/05/04 09:45:09;;;;;;;2.47;1.48;;;20.90;78.80;;;19.38;47.68;100591.53;10410834;27;96958;-85
2023/05/04 09:50:17;;;;;;;2.45;1.40;;;20.80;78.30;;;19.32;48.67;100593.22;10413663;27;96618;-85
2023/05/04 09:55:24;;;;;;;1.70;1.30;;;20.70;78.40;;;19.48;48.98;100591.88;10406012;27;96662;-85
2023/05/04 10:00:28;;;;;;;3.35;1.33;;;20.90;79.70;;;19.50;47.94;100587.09;10416587;27;97581;-88
2023/05/04 10:05:31;;;;;;;1.98;1.50;;;20.90;78.70;;;19.45;48.28;100582.34;10458986;27;96532;-88
2023/05/04 10:10:38;;;;;;;2.33;1.40;;;20.90;77.90;;;19.62;49.30;100571.91;10401909;27;97438;-88
2023/05/04 10:16:08;;;;;;;1.83;1.25;;;21.00;78.30;;;19.81;46.98;100570.13;10445437;27;96765;-88
2023/05/04 10:21:36;;;;;;;2.05;1.40;;;21.20;76.80;;;19.97;47.80;100564.19;10436866;27;96597;-87
2023/05/04 10:27:04;;;;;;;1.48;1.38;;;21.40;76.80;;;20.24;48.33;100556.66;10436758;27;96525;-88
2023/05/04 10:32:21;;;;;;;3.10;1.40;;;21.60;77.00;;;20.42;46.37;100549.63;10462935;27;96483;-88
2023/05/04 10:37:24;;;;;;;3.78;1.50;;;21.90;76.10;;;20.41;44.85;100550.69;10434478;27;98879;-88
2023/05/04 10:42:28;;;;;;;3.30;1.45;;;22.00;72.60;;;20.57;46.43;100537.47;10419895;27;98616;-85
2023/05/04 10:47:36;;;;;;;2.38;1.30;;;22.10;74.30;;;20.80;46.69;100533.22;10434468;27;98326;-85
2023/05/04 10:52:48;;;;;;;5.00;1.47;;;22.30;74.20;;;21.05;44.75;100531.25;10423669;27;96455;-85
2023/05/04 10:57:56;;;;;;;1.80;1.17;;;22.60;72.80;;;21.24;44.65;100520.41;10394251;27;98484;-85
2023/05/04 11:03:06;;;;;;;1.98;1.30;;;22.80;71.80;;;21.32;43.63;100512.81;10409624;27;97483;-85
2023/05/04 11:08:23;;;;;;;1.63;1.38;;;23.00;69.90;;;21.20;43.90;100503.81;10451968;27;96741;-85
2023/05/04 11:13:30;;;;;;;2.40;1.35;;;22.80;70.10;;;20.75;43.67;100504.22;10410851;27;96623;-84
2023/05/04 11:18:36;;;;;;;3.60;1.45;;;22.50;69.10;;;20.68;45.77;100505.34;10415903;27;98943;-83
2023/05/04 11:23:39;;;;;;;1.77;1.40;;;22.20;70.80;;;20.56;45.18;100495.28;10428838;27;96633;-84
2023/05/04 11:28:43;;;;;;;2.10;1.30;;;22.00;70.50;;;20.44;45.30;100502.47;10464817;27;97944;-85
2023/05/04 11:33:53;;;;;;;3.35;1.35;;;21.90;71.10;;;20.43;45.65;100490.03;10448441;27;96935;-85
2023/05/04 11:38:57;;;;;;;1.83;1.33;;;21.90;71.80;;;20.50;46.61;100488.09;10440878;27;97507;-84
2023/05/04 11:44:02;;;;;;;2.58;1.30;;;21.90;72.30;;;20.67;46.36;100480.22;10401985;27;96686;-84
2023/05/04 11:49:05;;;;;;;1.80;1.38;;;22.10;72.40;;;20.75;45.35;100479.06;10412295;27;96608;-84
2023/05/04 11:54:20;;;;;;;3.83;1.58;;;22.10;71.40;;;20.79;46.49;100472.16;10434851;27;96526;-84
2023/05/04 11:59:23;;;;;;;3.95;1.33;;;22.10;72.50;;;20.89;46.20;100468.94;10428450;27;96780;-84
2023/05/04 12:04:31;;;;;;;2.85;1.50;;;22.20;72.10;;;20.91;45.85;100472.22;10427468;27;96655;-84
2023/05/04 12:09:48;;;;;;;2.92;1.27;;;22.20;71.70;;;20.88;44.41;100467.28;10419049;27;97559;-84
2023/05/04 12:14:53;;;;;;;1.55;1.25;;;22.40;70.70;;;20.78;45.84;100468.63;10444056;27;97285;-84
2023/05/04 12:19:56;;;;;;;1.50;1.40;;;22.20;70.60;;;20.71;44.99;100464.38;10398221;27;96580;-84
2023/05/04 12:24:59;;;;;;;2.13;1.40;;;22.10;70.70;;;20.57;45.44;100469.97;10402281;27;97336;-84
2023/05/04 12:30:03;;;;;;;2.67;1.35;;;22.00;70.80;;;20.50;46.41;100466.50;10431387;27;96988;-84
2023/05/04 12:35:06;;;;;;;1.35;1.13;;;21.90;71.40;;;20.41;46.43;100464.31;10398366;27;96562;-84
2023/05/04 12:40:11;;;;;;;2.50;1.50;;;21.80;71.10;;;20.52;47.05;100453.63;10423373;27;96867;-84
2023/05/04 12:45:30;;;;;;;2.30;1.20;;;21.90;72.00;;;20.84;47.75;100445.31;10406819;27;96644;-84
2023/05/04 12:50:33;;;;;;;2.58;1.10;;;22.20;72.40;;;21.22;46.50;100444.94;10423826;27;96725;-84
2023/05/04 12:55:36;;;;;;;2.13;1.20;;;22.70;72.50;;;22.02;44.23;100441.72;10406491;27;98752;-84
2023/05/04 13:00:40;;;;;;;2.60;1.05;;;23.80;70.60;;;22.57;43.94;100426.91;10453586;27;98276;-85
2023/05/04 13:05:46;;;;;;;1.88;1.35;;;24.20;69.40;;;22.41;43.79;100434.72;10425820;27;96690;-84
2023/05/04 13:10:50;;;;;;;2.33;1.48;;;23.90;68.40;;;21.99;44.13;100438.66;10422937;27;96663;-84
2023/05/04 13:15:53;;;;;;;4.47;1.90;;;23.40;68.50;;;21.72;45.69;100430.22;10401784;27;98085;-85
2023/05/04 13:20:56;;;;;;;18.83;3.63;;;23.10;69.70;;;21.99;45.23;100423.25;10424940;27;96495;-85
2023/05/04 13:25:59;;;;;;;3.75;1.60;;;23.10;70.30;;;22.18;45.52;100413.13;10425387;27;97854;-85
2023/05/04 13:31:07;;;;;;;2.70;1.90;;;23.40;70.30;;;22.35;46.38;100408.59;10430434;27;96686;-85
2023/05/04 13:36:10;;;;;;;4.30;3.10;;;23.50;71.40;;;22.53;46.17;100409.50;10412092;27;96621;-86
2023/05/04 13:41:14;;;;;;;3.85;2.90;;;23.70;71.20;;;22.43;45.49;100399.28;10445114;27;96560;-85
2023/05/04 13:46:17;;;;;;;76.93;54.35;;;23.80;70.00;;;21.93;46.92;100394.44;10406791;27;96927;-83
2023/05/04 13:51:20;;;;;;;6.07;4.57;;;23.30;70.60;;;21.20;47.79;100397.59;10414340;27;97511;-84
2023/05/04 13:56:23;;;;;;;5.80;3.47;;;22.70;72.20;;;20.71;49.35;100404.97;10403223;28;97044;-83
2023/05/04 14:01:26;;;;;;;5.32;2.63;;;22.10;73.20;;;20.37;50.24;100401.84;10426349;27;98419;-82
2023/05/04 14:06:29;;;;;;;3.97;2.78;;;21.70;74.30;;;20.10;51.57;100395.16;10406477;27;96973;-82
2023/05/04 14:11:32;;;;;;;3.22;2.75;;;21.40;75.40;;;20.08;51.42;100394.53;10384209;28;96763;-83
2023/05/04 14:16:35;;;;;;;2.55;2.00;;;21.30;75.80;;;20.47;52.23;100380.59;10412316;28;99659;-83
2023/05/04 14:21:39;;;;;;;3.92;2.70;;;21.80;77.20;;;21.61;48.82;100388.59;10415918;27;97259;-83
2023/05/04 14:26:42;;;;;;;6.22;3.05;;;23.10;75.30;;;22.36;46.11;100382.34;10425344;27;96554;-84
2023/05/04 14:31:45;;;;;;;7.07;3.72;;;24.10;71.30;;;22.64;46.18;100374.22;10392668;27;99244;-84
2023/05/04 14:36:50;;;;;;;10.88;7.10;;;24.30;70.70;;;23.22;45.48;100377.69;10445433;27;96528;-85
2023/05/04 14:41:56;;;;;;;2.78;2.10;;;25.00;69.90;;;23.85;43.50;100367.50;10418297;27;96853;-84
2023/05/04 14:47:01;;;;;;;2.10;1.77;;;25.70;68.60;;;24.20;42.33;100367.97;10390379;27;97318;-84
2023/05/04 14:52:07;;;;;;;3.33;1.80;;;26.10;65.70;;;24.56;41.61;100368.38;10406651;27;97587;-84
2023/05/04 14:57:10;;;;;;;2.95;1.90;;;26.40;65.70;;;24.45;40.14;100370.16;10439763;27;96505;-84
2023/05/04 15:02:13;;;;;;;2.90;1.77;;;26.40;63.20;;;23.72;41.94;100369.53;10375011;28;96553;-84
2023/05/04 15:07:19;;;;;;;2.45;1.88;;;25.40;63.90;;;23.41;43.53;100357.38;10398078;27;97476;-84
2023/05/04 15:12:25;;;;;;;1.98;1.70;;;25.00;65.70;;;23.08;43.43;100369.06;10415092;27;98582;-84
2023/05/04 15:17:29;;;;;;;3.10;2.00;;;24.70;64.80;;;22.76;43.83;100362.53;10375745;27;96653;-83
2023/05/04 15:22:32;;;;;;;2.55;1.92;;;24.30;65.90;;;22.44;44.23;100371.16;10414131;27;96877;-83
2023/05/04 15:27:35;;;;;;;3.20;2.22;;;23.90;66.10;;;21.80;45.55;100373.06;10389391;27;96670;-83
2023/05/04 15:32:38;;;;;;;3.08;2.30;;;23.20;67.10;;;21.24;47.70;100369.06;10408784;27;96589;-83
2023/05/04 15:37:42;;;;;;;5.05;2.75;;;22.60;68.80;;;20.88;48.92;100370.88;10414188;27;97470;-83
2023/05/04 15:42:45;;;;;;;4.18;2.33;;;22.30;70.60;;;20.95;50.24;100374.28;10433154;27;96754;-83
2023/05/04 15:47:48;;;;;;;3.55;2.20;;;22.30;72.00;;;21.31;49.10;100365.19;10419635;27;96561;-83
2023/05/04 15:52:51;;;;;;;2.60;2.30;;;22.70;71.60;;;21.41;48.21;100370.03;10428706;27;97336;-83
2023/05/04 15:57:55;;;;;;;4.30;2.17;;;22.80;70.80;;;21.50;48.06;100357.78;10415456;27;96666;-83
2023/05/04 16:02:59;;;;;;;2.65;2.20;;;22.90;70.50;;;21.70;48.14;100354.72;10418960;27;96688;-82
2023/05/04 16:08:03;;;;;;;3.30;2.28;;;23.10;70.50;;;21.68;47.15;100353.31;10424278;27;96612;-83
2023/05/04 16:13:06;;;;;;;3.15;2.50;;;23.10;69.60;;;21.67;46.77;100349.78;10443183;27;97045;-83
2023/05/04 16:18:11;;;;;;;4.15;3.10;;;23.20;69.10;;;21.68;46.27;100348.72;10406504;27;96909;-84
2023/05/04 16:23:16;;;;;;;3.63;2.60;;;23.20;68.70;;;21.57;46.77;100353.09;10440284;27;98136;-83
2023/05/04 16:28:19;;;;;;;4.13;2.67;;;23.10;69.00;;;21.47;47.05;100363.69;10407764;27;96854;-82
2023/05/04 16:33:23;;;;;;;3.10;2.78;;;23.00;69.20;;;21.33;47.38;100362.25;10428481;27;96583;-83
2023/05/04 16:38:27;;;;;;;5.05;2.47;;;22.80;69.30;;;21.14;47.41;100374.19;10440828;27;96944;-82
2023/05/04 16:43:30;;;;;;;2.78;2.47;;;22.60;69.40;;;20.87;48.55;100380.03;10438756;27;96615;-82
2023/05/04 16:48:35;;;;;;;4.47;2.50;;;22.30;70.10;;;20.38;49.36;100387.31;10421492;27;97141;-82
2023/05/04 16:53:38;;;;;;;3.53;2.70;;;21.70;71.10;;;19.88;51.05;100376.72;10404191;27;97703;-82
2023/05/04 16:58:41;;;;;;;2.90;2.60;;;21.20;72.60;;;19.40;51.67;100385.47;10433426;27;96674;-82
2023/05/04 17:03:44;;;;;;;4.35;3.13;;;20.70;73.70;;;19.03;54.12;100391.78;10414614;27;98326;-81
2023/05/04 17:08:48;;;;;;;4.22;3.05;;;20.30;75.50;;;18.64;55.50;100394.47;10458067;27;98177;-84
2023/05/04 17:13:50;;;;;;;3.78;2.88;;;19.90;77.40;;;18.31;57.05;100394.66;10457304;27;96574;-84
2023/05/04 17:18:53;;;;;;;5.18;3.28;;;19.60;79.00;;;18.01;58.34;100396.22;10385152;28;96581;-82
2023/05/04 17:23:57;;;;;;;5.38;3.10;;;19.30;80.10;;;17.73;59.44;100405.38;10368611;28;96506;-83
2023/05/04 17:29:00;;;;;;;3.20;2.88;;;19.00;81.40;;;17.43;60.56;100415.69;10400464;27;96685;-83
2023/05/04 17:34:03;;;;;;;2.75;2.55;;;18.70;82.50;;;17.18;60.95;100417.34;10422893;27;98017;-83
2023/05/04 17:39:06;;;;;;;3.70;2.28;;;18.40;83.50;;;16.95;61.58;100417.72;10433486;27;97047;-83
2023/05/04 17:44:09;;;;;;;5.97;3.40;;;18.20;84.30;;;16.77;62.82;100431.72;10442103;27;96600;-83
2023/05/04 17:49:13;;;;;;;5.47;3.15;;;18.00;85.10;;;16.59;63.21;100427.72;10409380;27;96516;-83
2023/05/04 17:54:16;;;;;;;5.85;3.75;;;17.80;86.00;;;16.44;63.95;100440.47;10459095;27;96793;-83
2023/05/04 17:59:19;;;;;;;3.55;3.17;;;17.70;86.80;;;16.27;64.71;100452.56;10415597;27;96650;-83
2023/05/04 18:04:22;;;;;;;4.28;3.03;;;17.50;87.60;;;16.15;64.99;100449.63;10412772;27;96879;-83
2023/05/04 18:09:26;;;;;;;4.13;3.50;;;17.40;88.20;;;16.01;65.57;100450.56;10411888;27;98630;-84
2023/05/04 18:14:29;;;;;;;4.43;3.60;;;17.20;88.90;;;15.87;66.27;100460.38;10394184;27;98157;-83
2023/05/04 18:19:35;;;;;;;6.90;3.40;;;17.10;89.80;;;15.75;66.79;100460.09;10446430;27;97582;-83
2023/05/04 18:24:38;;;;;;;6.40;4.15;;;17.10;90.20;;;15.65;67.51;100462.28;10435106;27;96620;-83
2023/05/04 18:29:41;;;;;;;7.47;4.47;;;16.90;90.70;;;15.54;68.05;100473.50;10414144;27;97366;-84
2023/05/04 18:34:49;;;;;;;5.00;3.42;;;16.80;91.10;;;15.40;68.75;100477.06;10419370;27;98394;-84
2023/05/04 18:39:53;;;;;;;5.68;3.92;;;16.70;91.50;;;15.29;69.36;100482.94;10402869;27;97520;-83
2023/05/04 18:44:56;;;;;;;5.20;4.00;;;16.60;92.00;;;15.18;69.84;100489.66;10391871;27;97015;-83
2023/05/04 18:50:00;;;;;;;7.60;4.05;;;16.40;92.30;;;15.06;70.13;100497.34;10419863;27;98312;-83
2023/05/04 18:55:05;;;;;;;5.47;4.55;;;16.30;92.60;;;14.91;70.83;100494.69;10451543;27;98656;-83
2023/05/04 19:00:10;;;;;;;5.43;3.95;;;16.20;93.20;;;14.83;71.20;100507.38;10425830;27;97415;-84
2023/05/04 19:05:13;;;;;;;5.53;4.38;;;16.10;93.70;;;14.71;72.08;100509.72;10382104;27;96528;-83
2023/05/04 19:10:17;;;;;;;5.95;4.35;;;16.00;94.20;;;14.61;72.35;100515.34;10426515;27;97020;-83
2023/05/04 19:15:21;;;;;;;5.90;4.13;;;15.90;94.70;;;14.54;72.62;100514.44;10402721;27;98975;-83
2023/05/04 19:20:26;;;;;;;4.40;3.92;;;15.80;95.10;;;14.49;72.76;100516.81;10429482;27;98019;-83
2023/05/04 19:25:30;;;;;;;4.88;3.67;;;15.80;95.50;;;14.40;73.16;100523.25;10415228;27;96577;-84
2023/05/04 19:30:38;;;;;;;5.97;4.07;;;15.70;95.70;;;14.42;73.40;100531.91;10388929;27;98414;-83
2023/05/04 19:35:41;;;;;;;6.15;4.28;;;15.70;95.90;;;14.40;73.44;100539.31;10427049;27;97393;-83
2023/05/04 19:40:44;;;;;;;9.10;5.03;;;15.70;96.00;;;14.33;73.50;100533.84;10423866;27;96561;-83
2023/05/04 19:45:48;;;;;;;6.07;4.22;;;15.60;96.10;;;14.23;73.69;100537.81;10456705;27;96815;-83
2023/05/04 19:50:51;;;;;;;4.78;4.03;;;15.50;96.30;;;14.12;73.92;100537.25;10431823;27;96641;-82
2023/05/04 19:55:54;;;;;;;5.82;4.45;;;15.40;96.50;;;14.00;74.16;100538.72;10427465;27;96562;-83
2023/05/04 20:00:57;;;;;;;8.15;5.57;;;15.30;96.80;;;13.92;74.41;100538.78;10382979;27;97013;-83
2023/05/04 20:06:02;;;;;;;10.18;5.68;;;15.20;97.00;;;13.81;74.55;100547.25;10462671;27;96853;-84
2023/05/04 20:11:05;;;;;;;18.58;10.57;;;15.20;97.20;;;13.70;75.15;100542.31;10416805;27;96770;-84
2023/05/04 20:16:08;;;;;;;8.07;6.27;;;15.10;97.40;;;13.60;76.28;100551.41;10414480;27;96684;-84
2023/05/04 20:21:11;;;;;;;6.70;5.13;;;15.00;98.00;;;13.49;76.93;100554.47;10421776;27;96555;-84
2023/05/04 20:26:15;;;;;;;5.47;4.40;;;14.90;98.50;;;13.38;77.74;100561.09;10435723;27;97138;-84
2023/05/04 20:31:18;;;;;;;7.13;4.77;;;14.70;99.10;;;13.22;78.82;100557.69;10420359;27;96589;-84
2023/05/04 20:36:21;;;;;;;7.60;5.57;;;14.60;99.90;;;13.12;79.66;100557.88;10403214;27;96716;-84
2023/05/04 20:41:24;;;;;;;7.95;5.80;;;14.40;99.90;;;13.07;80.13;100568.22;10400988;27;96988;-84
2023/05/04 20:46:27;;;;;;;6.60;5.30;;;14.40;99.90;;;13.10;80.06;100584.72;10399393;27;97421;-84
2023/05/04 20:51:31;;;;;;;5.57;4.67;;;14.40;99.90;;;13.15;80.78;100596.72;10424994;27;97922;-84